sensor_id;sensor_type;location;lat;lon;timestamp;pressure;altitude;pressure_sealevel;temperature;humidity
39341;BME280;25059;52.132;21.062;2023-02-15T00:02:02;102128.19;;;3.11;100.00
39341;BME280;25059;52.132;21.062;2023-02-15T00:04:47;102124.72;;;3.10;100.00
39341;BME280;25059;52.132;21.062;2023-02-15T00:07:31;102122.03;;;3.06;100.00
39341;BME280;25059;52.132;21.062;2023-02-15T00:10:17;102127.19;;;3.04;100.00
39341;BME280;25059;52.132;21.062;2023-02-15T00:13:01;102118.53;;;3.04;100.00
39341;BME280;25059;52.132;21.062;2023-02-15T00:15:46;102134.13;;;3.05;100.00
39341;BME280;25059;52.132;21.062;2023-02-15T00:18:30;102124.81;;;3.15;100.00
39341;BME280;25059;52.132;21.062;2023-02-15T00:21:15;102123.78;;;3.07;100.00
39341;BME280;25059;52.132;21.062;2023-02-15T00:24:00;102125.44;;;3.03;100.00
39341;BME280;25059;52.132;21.062;2023-02-15T00:26:46;102126.31;;;3.04;100.00
39341;BME280;25059;52.132;21.062;2023-02-15T00:29:31;102121.94;;;3.01;100.00
39341;BME280;25059;52.132;21.062;2023-02-15T00:32:16;102115.91;;;3.02;100.00
39341;BME280;25059;52.132;21.062;2023-02-15T00:35:00;102114.22;;;3.06;100.00
39341;BME280;25059;52.132;21.062;2023-02-15T00:37:45;102122.91;;;3.06;100.00
39341;BME280;25059;52.132;21.062;2023-02-15T00:40:29;102114.16;;;3.03;100.00
39341;BME280;25059;52.132;21.062;2023-02-15T00:43:14;102105.50;;;3.02;100.00
39341;BME280;25059;52.132;21.062;2023-02-15T00:45:59;102096.00;;;3.04;100.00
39341;BME280;25059;52.132;21.062;2023-02-15T00:48:44;102096.91;;;3.05;100.00
39341;BME280;25059;52.132;21.062;2023-02-15T00:51:29;102094.25;;;3.03;100.00
39341;BME280;25059;52.132;21.062;2023-02-15T00:54:14;102089.97;;;3.05;100.00
39341;BME280;25059;52.132;21.062;2023-02-15T00:56:58;102089.03;;;3.02;100.00
39341;BME280;25059;52.132;21.062;2023-02-15T00:59:43;102089.00;;;3.00;100.00
39341;BME280;25059;52.132;21.062;2023-02-15T01:02:27;102080.38;;;3.01;100.00
39341;BME280;25059;52.132;21.062;2023-02-15T01:05:12;102081.31;;;3.05;100.00
39341;BME280;25059;52.132;21.062;2023-02-15T01:07:57;102081.38;;;3.08;100.00
39341;BME280;25059;52.132;21.062;2023-02-15T01:10:42;102084.94;;;3.13;100.00
39341;BME280;25059;52.132;21.062;2023-02-15T01:13:28;102076.28;;;3.14;100.00
39341;BME280;25059;52.132;21.062;2023-02-15T01:16:13;102068.63;;;3.21;100.00
39341;BME280;25059;52.132;21.062;2023-02-15T01:18:57;102071.31;;;3.26;100.00
39341;BME280;25059;52.132;21.062;2023-02-15T01:21:42;102070.34;;;3.21;100.00
39341;BME280;25059;52.132;21.062;2023-02-15T01:24:26;102070.34;;;3.21;100.00
39341;BME280;25059;52.132;21.062;2023-02-15T01:30:37;102069.34;;;3.13;100.00
39341;BME280;25059;52.132;21.062;2023-02-15T01:33:22;102070.34;;;3.19;100.00
39341;BME280;25059;52.132;21.062;2023-02-15T01:36:06;102065.06;;;3.16;100.00
39341;BME280;25059;52.132;21.062;2023-02-15T01:38:51;102069.31;;;3.11;100.00
39341;BME280;25059;52.132;21.062;2023-02-15T01:41:36;102068.53;;;3.17;100.00
39341;BME280;25059;52.132;21.062;2023-02-15T01:47:44;102068.53;;;3.17;100.00
39341;BME280;25059;52.132;21.062;2023-02-15T01:50:34;102068.66;;;3.23;100.00
39341;BME280;25059;52.132;21.062;2023-02-15T01:53:38;102060.13;;;3.30;100.00
39341;BME280;25059;52.132;21.062;2023-02-15T01:56:30;102063.56;;;3.28;100.00
39341;BME280;25059;52.132;21.062;2023-02-15T01:59:20;102065.91;;;3.15;100.00
39341;BME280;25059;52.132;21.062;2023-02-15T02:02:09;102062.34;;;3.10;100.00
39341;BME280;25059;52.132;21.062;2023-02-15T02:05:00;102060.69;;;3.14;100.00
39341;BME280;25059;52.132;21.062;2023-02-15T02:07:51;102057.13;;;3.09;100.00
39341;BME280;25059;52.132;21.062;2023-02-15T02:10:37;102060.56;;;3.08;100.00
39341;BME280;25059;52.132;21.062;2023-02-15T02:13:22;102057.09;;;3.07;100.00
39341;BME280;25059;52.132;21.062;2023-02-15T02:28:53;102038.25;;;3.17;100.00
39341;BME280;25059;52.132;21.062;2023-02-15T02:34:45;102038.88;;;3.06;100.00
39341;BME280;25059;52.132;21.062;2023-02-15T02:43:33;102034.63;;;3.09;100.00
39341;BME280;25059;52.132;21.062;2023-02-15T02:46:24;102032.19;;;3.18;100.00
39341;BME280;25059;52.132;21.062;2023-02-15T02:49:11;102035.69;;;3.20;100.00
39341;BME280;25059;52.132;21.062;2023-02-15T02:51:59;102033.03;;;3.17;100.00
39341;BME280;25059;52.132;21.062;2023-02-15T02:54:45;102033.06;;;3.19;100.00
39341;BME280;25059;52.132;21.062;2023-02-15T02:57:29;102024.66;;;3.32;100.00
39341;BME280;25059;52.132;21.062;2023-02-15T03:00:17;102025.56;;;3.34;100.00
39341;BME280;25059;52.132;21.062;2023-02-15T03:03:13;102027.09;;;3.23;100.00
39341;BME280;25059;52.132;21.062;2023-02-15T03:06:04;102023.75;;;3.30;100.00
39341;BME280;25059;52.132;21.062;2023-02-15T03:08:51;102027.13;;;3.26;100.00
39341;BME280;25059;52.132;21.062;2023-02-15T03:11:37;102022.72;;;3.22;100.00
39341;BME280;25059;52.132;21.062;2023-02-15T03:14:22;102023.59;;;3.21;100.00
39341;BME280;25059;52.132;21.062;2023-02-15T03:17:08;102021.84;;;3.21;100.00
39341;BME280;25059;52.132;21.062;2023-02-15T03:19:57;102023.47;;;3.15;100.00
39341;BME280;25059;52.132;21.062;2023-02-15T03:22:48;102022.75;;;3.23;100.00
39341;BME280;25059;52.132;21.062;2023-02-15T03:25:38;102019.22;;;3.20;100.00
39341;BME280;25059;52.132;21.062;2023-02-15T03:28:31;102024.47;;;3.23;100.00
39341;BME280;25059;52.132;21.062;2023-02-15T03:31:18;102018.34;;;3.19;100.00
39341;BME280;25059;52.132;21.062;2023-02-15T03:34:09;102023.59;;;3.21;100.00
39341;BME280;25059;52.132;21.062;2023-02-15T03:43:13;102020.09;;;3.20;100.00
39341;BME280;25059;52.132;21.062;2023-02-15T03:46:05;102017.63;;;3.27;100.00
39341;BME280;25059;52.132;21.062;2023-02-15T03:48:57;102015.22;;;3.37;100.00
39341;BME280;25059;52.132;21.062;2023-02-15T03:51:46;102020.44;;;3.39;100.00
39341;BME280;25059;52.132;21.062;2023-02-15T03:54:34;102013.41;;;3.33;100.00
39341;BME280;25059;52.132;21.062;2023-02-15T03:57:28;102016.00;;;3.33;100.00
39341;BME280;25059;52.132;21.062;2023-02-15T04:00:35;102011.69;;;3.34;100.00
39341;BME280;25059;52.132;21.062;2023-02-15T04:03:51;102015.97;;;3.32;100.00
39341;BME280;25059;52.132;21.062;2023-02-15T04:06:37;102007.34;;;3.34;100.00
39341;BME280;25059;52.132;21.062;2023-02-15T04:09:22;102014.19;;;3.29;100.00
39341;BME280;25059;52.132;21.062;2023-02-15T04:12:27;102006.16;;;3.15;100.00
39341;BME280;25059;52.132;21.062;2023-02-15T04:15:12;102007.88;;;3.15;100.00
39341;BME280;25059;52.132;21.062;2023-02-15T04:18:16;102013.16;;;3.19;100.00
39341;BME280;25059;52.132;21.062;2023-02-15T04:21:12;102007.25;;;3.28;100.00
39341;BME280;25059;52.132;21.062;2023-02-15T04:24:17;102005.47;;;3.26;100.00
39341;BME280;25059;52.132;21.062;2023-02-15T04:27:22;102008.88;;;3.21;100.00
39341;BME280;25059;52.132;21.062;2023-02-15T04:30:07;102007.91;;;3.16;100.00
39341;BME280;25059;52.132;21.062;2023-02-15T04:32:53;102013.06;;;3.13;100.00
39341;BME280;25059;52.132;21.062;2023-02-15T04:35:38;101995.53;;;3.03;100.00
39341;BME280;25059;52.132;21.062;2023-02-15T04:41:54;101996.44;;;3.05;100.00
39341;BME280;25059;52.132;21.062;2023-02-15T04:44:38;101994.72;;;3.06;100.00
39341;BME280;25059;52.132;21.062;2023-02-15T04:47:23;102005.94;;;3.03;100.00
39341;BME280;25059;52.132;21.062;2023-02-15T04:50:08;102003.31;;;3.02;100.00
39341;BME280;25059;52.132;21.062;2023-02-15T04:52:53;101999.88;;;3.04;100.00
39341;BME280;25059;52.132;21.062;2023-02-15T04:55:38;102002.50;;;3.04;100.00
39341;BME280;25059;52.132;21.062;2023-02-15T04:58:22;101998.22;;;3.08;100.00
39341;BME280;25059;52.132;21.062;2023-02-15T05:01:08;102004.19;;;3.02;100.00
39341;BME280;25059;52.132;21.062;2023-02-15T05:03:52;102004.00;;;2.93;100.00
39341;BME280;25059;52.132;21.062;2023-02-15T05:06:37;102005.59;;;2.85;100.00
39341;BME280;25059;52.132;21.062;2023-02-15T05:09:22;102012.56;;;2.87;100.00
39341;BME280;25059;52.132;21.062;2023-02-15T05:12:06;102004.69;;;2.83;100.00
39341;BME280;25059;52.132;21.062;2023-02-15T05:14:50;102019.50;;;2.88;100.00
39341;BME280;25059;52.132;21.062;2023-02-15T05:17:36;102013.50;;;2.91;100.00
39341;BME280;25059;52.132;21.062;2023-02-15T05:20:20;102020.38;;;2.89;100.00
39341;BME280;25059;52.132;21.062;2023-02-15T05:23:05;102024.78;;;2.93;100.00
39341;BME280;25059;52.132;21.062;2023-02-15T05:25:50;102022.16;;;2.91;100.00
39341;BME280;25059;52.132;21.062;2023-02-15T05:28:55;102035.22;;;2.95;100.00
39341;BME280;25059;52.132;21.062;2023-02-15T05:31:39;102036.00;;;2.90;100.00
39341;BME280;25059;52.132;21.062;2023-02-15T05:34:24;102038.44;;;2.83;100.00
39341;BME280;25059;52.132;21.062;2023-02-15T05:37:08;102026.31;;;2.82;100.00
39341;BME280;25059;52.132;21.062;2023-02-15T05:39:53;102030.56;;;2.78;100.00
39341;BME280;25059;52.132;21.062;2023-02-15T05:42:37;102021.97;;;2.81;100.00
39341;BME280;25059;52.132;21.062;2023-02-15T05:45:22;102027.03;;;2.75;100.00
39341;BME280;25059;52.132;21.062;2023-02-15T05:48:07;102017.63;;;2.81;100.00
39341;BME280;25059;52.132;21.062;2023-02-15T05:51:10;102021.91;;;2.78;100.00
39341;BME280;25059;52.132;21.062;2023-02-15T05:53:56;102015.19;;;2.89;100.00
39341;BME280;25059;52.132;21.062;2023-02-15T05:56:41;102014.25;;;2.85;100.00
39341;BME280;25059;52.132;21.062;2023-02-15T05:59:25;102023.66;;;2.79;100.00
39341;BME280;25059;52.132;21.062;2023-02-15T06:02:10;102020.91;;;2.71;100.00
39341;BME280;25059;52.132;21.062;2023-02-15T06:04:55;102020.84;;;2.68;100.00
39341;BME280;25059;52.132;21.062;2023-02-15T06:07:43;102025.00;;;2.60;100.00
39341;BME280;25059;52.132;21.062;2023-02-15T06:10:28;102026.78;;;2.63;100.00
39341;BME280;25059;52.132;21.062;2023-02-15T06:13:13;102036.22;;;2.59;100.00
39341;BME280;25059;52.132;21.062;2023-02-15T06:15:58;102034.44;;;2.56;100.00
39341;BME280;25059;52.132;21.062;2023-02-15T06:18:43;102029.44;;;2.66;100.00
39341;BME280;25059;52.132;21.062;2023-02-15T06:21:28;102032.25;;;2.76;100.00
39341;BME280;25059;52.132;21.062;2023-02-15T06:24:13;102035.63;;;2.72;100.00
39341;BME280;25059;52.132;21.062;2023-02-15T06:26:57;102029.59;;;2.73;100.00
39341;BME280;25059;52.132;21.062;2023-02-15T06:29:42;102037.06;;;2.58;100.00
39341;BME280;25059;52.132;21.062;2023-02-15T06:32:26;102038.03;;;2.63;100.00
39341;BME280;25059;52.132;21.062;2023-02-15T06:35:11;102033.78;;;2.67;100.00
39341;BME280;25059;52.132;21.062;2023-02-15T06:37:55;102048.53;;;2.68;100.00
39341;BME280;25059;52.132;21.062;2023-02-15T06:40:40;102040.78;;;2.71;100.00
39341;BME280;25059;52.132;21.062;2023-02-15T06:43:24;102043.56;;;2.80;100.00
39341;BME280;25059;52.132;21.062;2023-02-15T06:46:09;102040.31;;;2.90;100.00
39341;BME280;25059;52.132;21.062;2023-02-15T06:48:53;102039.34;;;2.85;100.00
39341;BME280;25059;52.132;21.062;2023-02-15T06:51:38;102037.63;;;2.85;100.00
39341;BME280;25059;52.132;21.062;2023-02-15T06:54:25;102033.53;;;2.98;100.00
39341;BME280;25059;52.132;21.062;2023-02-15T06:57:10;102034.47;;;3.02;100.00
39341;BME280;25059;52.132;21.062;2023-02-15T06:59:54;102039.66;;;3.00;100.00
39341;BME280;25059;52.132;21.062;2023-02-15T07:02:39;102032.59;;;2.93;100.00
39341;BME280;25059;52.132;21.062;2023-02-15T07:05:25;102035.81;;;2.81;100.00
39341;BME280;25059;52.132;21.062;2023-02-15T07:08:15;102031.34;;;2.74;100.00
39341;BME280;25059;52.132;21.062;2023-02-15T07:10:59;102034.75;;;2.72;100.00
39341;BME280;25059;52.132;21.062;2023-02-15T07:14:04;102026.34;;;2.83;100.00
39341;BME280;25059;52.132;21.062;2023-02-15T07:16:48;102028.06;;;2.83;100.00
39341;BME280;25059;52.132;21.062;2023-02-15T07:19:36;102033.16;;;2.78;100.00
39341;BME280;25059;52.132;21.062;2023-02-15T07:22:20;102033.78;;;2.67;100.00
39341;BME280;25059;52.132;21.062;2023-02-15T07:25:06;102033.94;;;2.74;100.00
39341;BME280;25059;52.132;21.062;2023-02-15T07:27:59;102035.63;;;2.72;100.00
39341;BME280;25059;52.132;21.062;2023-02-15T07:30:45;102028.75;;;2.74;100.00
39341;BME280;25059;52.132;21.062;2023-02-15T07:33:31;102031.38;;;2.76;100.00
39341;BME280;25059;52.132;21.062;2023-02-15T07:36:15;102031.47;;;2.80;100.00
39341;BME280;25059;52.132;21.062;2023-02-15T07:39:00;102030.69;;;2.84;100.00
39341;BME280;25059;52.132;21.062;2023-02-15T07:41:44;102027.13;;;2.79;100.00
39341;BME280;25059;52.132;21.062;2023-02-15T07:44:29;102016.06;;;2.89;100.00
39341;BME280;25059;52.132;21.062;2023-02-15T07:47:14;102018.78;;;2.96;100.00
39341;BME280;25059;52.132;21.062;2023-02-15T07:49:58;102016.09;;;2.91;100.00
39341;BME280;25059;52.132;21.062;2023-02-15T07:52:43;102013.19;;;2.76;100.00
39341;BME280;25059;52.132;21.062;2023-02-15T07:55:27;102011.81;;;2.93;100.00
39341;BME280;25059;52.132;21.062;2023-02-15T07:58:12;102011.31;;;3.12;100.00
39341;BME280;25059;52.132;21.062;2023-02-15T08:00:56;102013.81;;;3.08;100.00
39341;BME280;25059;52.132;21.062;2023-02-15T08:03:41;102014.63;;;3.05;100.00
39341;BME280;25059;52.132;21.062;2023-02-15T08:06:28;102012.38;;;3.23;100.00
39341;BME280;25059;52.132;21.062;2023-02-15T08:09:13;102004.84;;;3.39;100.00
39341;BME280;25059;52.132;21.062;2023-02-15T08:11:57;102010.00;;;3.37;100.00
39341;BME280;25059;52.132;21.062;2023-02-15T08:14:42;102002.25;;;3.39;100.00
39341;BME280;25059;52.132;21.062;2023-02-15T08:17:26;102000.41;;;3.33;100.00
39341;BME280;25059;52.132;21.062;2023-02-15T08:20:11;102003.78;;;3.28;100.00
39341;BME280;25059;52.132;21.062;2023-02-15T08:22:56;101997.31;;;3.06;100.00
39341;BME280;25059;52.132;21.062;2023-02-15T08:25:40;102002.38;;;2.98;100.00
39341;BME280;25059;52.132;21.062;2023-02-15T08:28:25;102001.44;;;2.95;100.00
39341;BME280;25059;52.132;21.062;2023-02-15T08:31:11;102000.19;;;2.74;100.00
39341;BME280;25059;52.132;21.062;2023-02-15T08:33:57;102003.81;;;2.82;100.00
39341;BME280;25059;52.132;21.062;2023-02-15T08:36:42;102004.50;;;2.74;100.00
39341;BME280;25059;52.132;21.062;2023-02-15T08:39:26;102005.44;;;2.77;100.00
39341;BME280;25059;52.132;21.062;2023-02-15T08:42:11;102001.31;;;2.88;100.00
39341;BME280;25059;52.132;21.062;2023-02-15T08:44:59;101999.50;;;2.83;100.00
39341;BME280;25059;52.132;21.062;2023-02-15T08:47:44;101999.66;;;2.92;100.00
39341;BME280;25059;52.132;21.062;2023-02-15T08:50:30;101998.75;;;2.90;100.00
39341;BME280;25059;52.132;21.062;2023-02-15T08:53:18;101998.38;;;2.70;100.00
39341;BME280;25059;52.132;21.062;2023-02-15T08:56:06;101996.16;;;2.46;100.00
39341;BME280;25059;52.132;21.062;2023-02-15T08:58:53;101989.47;;;2.57;100.00
39341;BME280;25059;52.132;21.062;2023-02-15T09:01:37;101988.06;;;2.73;100.00
39341;BME280;25059;52.132;21.062;2023-02-15T09:04:22;101978.81;;;2.89;100.00
39341;BME280;25059;52.132;21.062;2023-02-15T09:07:07;101967.25;;;3.20;100.00
39341;BME280;25059;52.132;21.062;2023-02-15T09:09:52;101971.47;;;3.13;100.00
39341;BME280;25059;52.132;21.062;2023-02-15T09:12:37;101971.22;;;3.00;100.00
39341;BME280;25059;52.132;21.062;2023-02-15T09:15:21;101971.28;;;3.03;100.00
39341;BME280;25059;52.132;21.062;2023-02-15T09:18:06;101964.88;;;2.84;100.00
39341;BME280;25059;52.132;21.062;2023-02-15T09:20:50;101969.50;;;3.00;100.00
39341;BME280;25059;52.132;21.062;2023-02-15T09:23:35;101965.97;;;2.97;100.00
39341;BME280;25059;52.132;21.062;2023-02-15T09:26:24;101962.44;;;2.93;100.00
39341;BME280;25059;52.132;21.062;2023-02-15T09:29:13;101961.53;;;2.91;100.00
39341;BME280;25059;52.132;21.062;2023-02-15T09:31:58;101963.81;;;2.73;100.00
39341;BME280;25059;52.132;21.062;2023-02-15T09:34:43;101958.06;;;2.89;100.00
39341;BME280;25059;52.132;21.062;2023-02-15T09:37:27;101966.88;;;2.99;100.00
39341;BME280;25059;52.132;21.062;2023-02-15T09:40:15;101963.03;;;2.78;100.00
39341;BME280;25059;52.132;21.062;2023-02-15T09:43:04;101963.16;;;2.84;100.00
39341;BME280;25059;52.132;21.062;2023-02-15T09:46:12;101967.78;;;3.01;100.00
39341;BME280;25059;52.132;21.062;2023-02-15T09:49:11;101963.69;;;3.13;100.00
39341;BME280;25059;52.132;21.062;2023-02-15T09:55:12;101950.72;;;3.15;100.00
39341;BME280;25059;52.132;21.062;2023-02-15T09:58:29;101956.97;;;3.26;100.00
39341;BME280;25059;52.132;21.062;2023-02-15T10:11:03;101945.28;;;3.52;100.00
39341;BME280;25059;52.132;21.062;2023-02-15T10:13:44;101939.53;;;3.75;100.00
39341;BME280;25059;52.132;21.062;2023-02-15T10:19:42;101937.97;;;3.86;100.00
39341;BME280;25059;52.132;21.062;2023-02-15T10:29:13;101924.34;;;4.05;100.00
39341;BME280;25059;52.132;21.062;2023-02-15T10:35:01;101910.69;;;4.21;100.00
39341;BME280;25059;52.132;21.062;2023-02-15T10:47:24;101919.63;;;3.77;100.00
39341;BME280;25059;52.132;21.062;2023-02-15T10:56:33;101902.78;;;4.14;100.00
39341;BME280;25059;52.132;21.062;2023-02-15T10:59:38;101895.72;;;4.05;100.00
39341;BME280;25059;52.132;21.062;2023-02-15T11:08:35;101887.88;;;4.02;100.00
39341;BME280;25059;52.132;21.062;2023-02-15T11:11:27;101883.69;;;4.13;100.00
39341;BME280;25059;52.132;21.062;2023-02-15T11:17:37;101882.06;;;4.25;100.00
39341;BME280;25059;52.132;21.062;2023-02-15T11:20:30;101879.44;;;4.21;100.00
39341;BME280;25059;52.132;21.062;2023-02-15T11:23:16;101883.56;;;4.04;100.00
39341;BME280;25059;52.132;21.062;2023-02-15T11:26:10;101882.50;;;3.88;100.00
39341;BME280;25059;52.132;21.062;2023-02-15T11:29:00;101876.34;;;3.82;100.00
39341;BME280;25059;52.132;21.062;2023-02-15T11:31:49;101884.19;;;3.85;100.00
39341;BME280;25059;52.132;21.062;2023-02-15T11:34:38;101876.91;;;3.60;100.00
39341;BME280;25059;52.132;21.062;2023-02-15T11:37:33;101879.34;;;3.49;100.00
39341;BME280;25059;52.132;21.062;2023-02-15T11:43:16;101870.13;;;3.71;100.00
39341;BME280;25059;52.132;21.062;2023-02-15T11:46:03;101882.16;;;3.63;100.00
39341;BME280;25059;52.132;21.062;2023-02-15T11:48:49;101877.84;;;3.65;100.00
39341;BME280;25059;52.132;21.062;2023-02-15T11:51:34;101877.34;;;3.92;100.00
39341;BME280;25059;52.132;21.062;2023-02-15T11:54:26;101873.06;;;3.97;100.00
39341;BME280;25059;52.132;21.062;2023-02-15T11:57:14;101866.94;;;3.92;100.00
39341;BME280;25059;52.132;21.062;2023-02-15T12:00:13;101867.00;;;3.96;100.00
39341;BME280;25059;52.132;21.062;2023-02-15T12:03:02;101854.78;;;3.91;100.00
39341;BME280;25059;52.132;21.062;2023-02-15T12:05:53;101855.69;;;3.94;100.00
39341;BME280;25059;52.132;21.062;2023-02-15T12:08:46;101853.06;;;3.93;100.00
39341;BME280;25059;52.132;21.062;2023-02-15T12:11:36;101853.13;;;3.97;100.00
39341;BME280;25059;52.132;21.062;2023-02-15T12:14:21;101846.19;;;3.96;100.00
39341;BME280;25059;52.132;21.062;2023-02-15T12:17:13;101841.03;;;4.02;100.00
39341;BME280;25059;52.132;21.062;2023-02-15T12:20:04;101837.53;;;3.99;100.00
39341;BME280;25059;52.132;21.062;2023-02-15T12:25:59;101829.81;;;4.06;100.00
39341;BME280;25059;52.132;21.062;2023-02-15T12:32:16;101832.25;;;3.91;100.00
39341;BME280;25059;52.132;21.062;2023-02-15T12:35:09;101825.19;;;3.82;100.00
39341;BME280;25059;52.132;21.062;2023-02-15T12:41:03;101823.94;;;3.51;100.00
39341;BME280;25059;52.132;21.062;2023-02-15T12:44:15;101825.63;;;3.49;100.00
39341;BME280;25059;52.132;21.062;2023-02-15T12:47:16;101818.75;;;3.54;100.00
39341;BME280;25059;52.132;21.062;2023-02-15T12:56:11;101803.38;;;3.70;100.00
39341;BME280;25059;52.132;21.062;2023-02-15T13:02:28;101806.56;;;3.50;100.00
39341;BME280;25059;52.132;21.062;2023-02-15T13:08:10;101800.31;;;3.36;100.00
39341;BME280;25059;52.132;21.062;2023-02-15T13:11:03;101798.75;;;3.49;100.00
39341;BME280;25059;52.132;21.062;2023-02-15T13:13:58;101794.50;;;3.54;100.00
39341;BME280;25059;52.132;21.062;2023-02-15T13:16:50;101792.88;;;3.64;100.00
39341;BME280;25059;52.132;21.062;2023-02-15T13:19:56;101785.88;;;3.58;100.00
39341;BME280;25059;52.132;21.062;2023-02-15T13:22:45;101784.09;;;3.54;100.00
39341;BME280;25059;52.132;21.062;2023-02-15T13:25:44;101777.19;;;3.56;100.00
39341;BME280;25059;52.132;21.062;2023-02-15T13:28:42;101779.72;;;3.51;100.00
39341;BME280;25059;52.132;21.062;2023-02-15T13:31:29;101774.75;;;3.68;100.00
39341;BME280;25059;52.132;21.062;2023-02-15T13:34:35;101765.25;;;3.73;100.00
39341;BME280;25059;52.132;21.062;2023-02-15T13:40:36;101763.41;;;3.63;100.00
39341;BME280;25059;52.132;21.062;2023-02-15T13:49:17;101761.81;;;3.74;100.00
39341;BME280;25059;52.132;21.062;2023-02-15T13:52:21;101756.53;;;3.68;100.00
39341;BME280;25059;52.132;21.062;2023-02-15T14:01:01;101758.94;;;3.51;100.00
39341;BME280;25059;52.132;21.062;2023-02-15T14:03:55;101752.00;;;3.52;100.00
39341;BME280;25059;52.132;21.062;2023-02-15T14:25:25;101747.56;;;3.43;100.00
39341;BME280;25059;52.132;21.062;2023-02-15T14:28:17;101738.16;;;3.54;100.00
39341;BME280;25059;52.132;21.062;2023-02-15T14:31:09;101735.47;;;3.47;100.00
39341;BME280;25059;52.132;21.062;2023-02-15T14:33:57;101734.50;;;3.39;100.00
39341;BME280;25059;52.132;21.062;2023-02-15T14:36:42;101742.25;;;3.34;100.00
39341;BME280;25059;52.132;21.062;2023-02-15T14:39:43;101736.97;;;3.28;100.00
39341;BME280;25059;52.132;21.062;2023-02-15T14:42:53;101739.63;;;3.33;100.00
39341;BME280;25059;52.132;21.062;2023-02-15T14:48:51;101736.28;;;3.43;100.00
39341;BME280;25059;52.132;21.062;2023-02-15T15:00:00;101732.50;;;3.18;100.00
39341;BME280;25059;52.132;21.062;2023-02-15T15:02:48;101729.00;;;3.16;100.00
39341;BME280;25059;52.132;21.062;2023-02-15T15:05:46;101729.16;;;3.27;100.00
39341;BME280;25059;52.132;21.062;2023-02-15T15:08:36;101726.41;;;3.16;100.00
39341;BME280;25059;52.132;21.062;2023-02-15T15:20:53;101722.16;;;3.21;100.00
39341;BME280;25059;52.132;21.062;2023-02-15T15:23:40;101710.09;;;3.26;100.00
39341;BME280;25059;52.132;21.062;2023-02-15T15:26:27;101710.91;;;3.22;100.00
39341;BME280;25059;52.132;21.062;2023-02-15T15:29:12;101702.13;;;3.14;100.00
39341;BME280;25059;52.132;21.062;2023-02-15T15:31:59;101698.59;;;3.07;100.00
39341;BME280;25059;52.132;21.062;2023-02-15T15:52:49;101689.72;;;2.93;100.00
39341;BME280;25059;52.132;21.062;2023-02-15T15:55:35;101689.63;;;2.85;100.00
39341;BME280;25059;52.132;21.062;2023-02-15T15:58:23;101682.69;;;2.84;100.00
39341;BME280;25059;52.132;21.062;2023-02-15T16:01:10;101687.03;;;2.87;100.00
39341;BME280;25059;52.132;21.062;2023-02-15T16:03:58;101685.31;;;2.86;100.00
39341;BME280;25059;52.132;21.062;2023-02-15T16:06:44;101686.09;;;2.80;100.00
39341;BME280;25059;52.132;21.062;2023-02-15T16:09:29;101687.72;;;2.74;100.00
39341;BME280;25059;52.132;21.062;2023-02-15T16:12:15;101683.38;;;2.71;100.00
39341;BME280;25059;52.132;21.062;2023-02-15T16:15:13;101684.09;;;2.63;100.00
39341;BME280;25059;52.132;21.062;2023-02-15T16:17:59;101680.63;;;2.62;100.00
39341;BME280;25059;52.132;21.062;2023-02-15T16:21:00;101691.88;;;2.63;100.00
39341;BME280;25059;52.132;21.062;2023-02-15T16:33:12;101689.94;;;2.49;100.00
39341;BME280;25059;52.132;21.062;2023-02-15T16:35:58;101681.22;;;2.44;100.00
39341;BME280;25059;52.132;21.062;2023-02-15T16:41:32;101670.66;;;2.32;100.00
39341;BME280;25059;52.132;21.062;2023-02-15T16:44:19;101665.50;;;2.34;100.00
39341;BME280;25059;52.132;21.062;2023-02-15T16:47:10;101670.69;;;2.35;100.00
39341;BME280;25059;52.132;21.062;2023-02-15T16:50:01;101678.44;;;2.32;100.00
39341;BME280;25059;52.132;21.062;2023-02-15T16:52:47;101672.41;;;2.33;100.00
39341;BME280;25059;52.132;21.062;2023-02-15T16:55:38;101671.66;;;2.42;100.00
39341;BME280;25059;52.132;21.062;2023-02-15T16:58:29;101673.38;;;2.40;100.00
39341;BME280;25059;52.132;21.062;2023-02-15T17:01:14;101663.03;;;2.43;100.00
39341;BME280;25059;52.132;21.062;2023-02-15T17:07:14;101650.25;;;2.56;100.00
39341;BME280;25059;52.132;21.062;2023-02-15T17:10:00;101660.72;;;2.61;100.00
39341;BME280;25059;52.132;21.062;2023-02-15T17:12:46;101650.19;;;2.50;100.00
39341;BME280;25059;52.132;21.062;2023-02-15T17:15:36;101651.81;;;2.44;100.00
39341;BME280;25059;52.132;21.062;2023-02-15T17:18:23;101652.47;;;2.31;100.00
39341;BME280;25059;52.132;21.062;2023-02-15T17:21:12;101649.72;;;2.21;100.00
39341;BME280;25059;52.132;21.062;2023-02-15T17:24:00;101648.94;;;2.25;100.00
39341;BME280;25059;52.132;21.062;2023-02-15T17:26:49;101645.44;;;2.23;100.00
39341;BME280;25059;52.132;21.062;2023-02-15T17:29:37;101634.94;;;2.16;100.00
39341;BME280;25059;52.132;21.062;2023-02-15T17:32:25;101638.44;;;2.18;100.00
39341;BME280;25059;52.132;21.062;2023-02-15T17:35:31;101630.63;;;2.16;100.00
39341;BME280;25059;52.132;21.062;2023-02-15T17:38:19;101628.94;;;2.18;100.00
39341;BME280;25059;52.132;21.062;2023-02-15T17:41:04;101627.19;;;2.17;100.00
39341;BME280;25059;52.132;21.062;2023-02-15T17:43:50;101621.25;;;2.26;100.00
39341;BME280;25059;52.132;21.062;2023-02-15T17:46:36;101623.06;;;2.30;100.00
39341;BME280;25059;52.132;21.062;2023-02-15T17:49:24;101616.91;;;2.23;100.00
39341;BME280;25059;52.132;21.062;2023-02-15T17:52:13;101609.94;;;2.21;100.00